Arnaut Xavi Simons

Olheiro-Chefe - Ajax
4 Abr 2027
Domingo
Processo

Personalidade

Adaptabilidade (1) Ambição (13) Controvérsia (7) Lealdade (16) Pressão (3) Profissionalismo (19) Espírito Esportivo (13) Temperamento (17)

Perfil

Estilo de Treinamento Democrático
Licença Continental A
Determinação 6
Gestão de Pessoas 6
Motivação 15
Disciplina 14
Satisfação no Trabalho
100%
Fadiga
0%
Função Olheiro-Chefe
Salário 86.3K p/s
Contrato 14.03.2029

Desempenho

Comportamento Bom
Eficácia do Treinamento
54%
Desenvolvimento do Jogador
85%
Prevenção de Lesões
40%
Implementação Tática
35%

Eventos Recentes

Avaliou um jogador agora
Participou de uma reunião de recrutamento agora
Avaliou um jogador agora
Avaliou um jogador agora
Avaliou um jogador agora
Avaliou um jogador 7d atrás
Avaliou um jogador 7d atrás
Avaliou um jogador 7d atrás

Monitorando agora

203
Jogador Clube Status Habilidade Confiança Observado Última observação Último voto
Mateo Retegui Al-Qadisiyah Ativo 165 / 157 40% 13 02.04.2027 -
Jarrod Bowen West Ham United Ativo 154 / 158 40% 4 02.04.2027 -
Brennan Johnson Everton Ativo 144 / 145 40% 4 02.04.2027 -
Liam Delap Nottingham Forest Ativo 145 / 139 40% 4 01.04.2027 -
Jason Januzaj Mouscron Ativo 150 / 137 40% 7 01.04.2027 -
Alexis Vega Toluca Ativo 155 / 135 40% 3 01.04.2027 -
Federico Chiesa Liverpool Ativo 162 / 162 40% 14 31.03.2027 -
James Garner Everton Ativo 146 / 143 40% 5 31.03.2027 -
Daniel Muñoz Racing Genk Ativo 148 / 154 40% 5 31.03.2027 -
Yoan Bonny Inter Ativo 147 / 145 40% 1 31.03.2027 -
Rodri Barcelona Ativo 182 / 184 40% 1 31.03.2027 -
Aimar Osasuna Ativo 147 / 143 40% 1 30.03.2027 -
Raúl Moro Osasuna Ativo 140 / 142 40% 1 30.03.2027 -
Santiago Castro AS Roma Ativo 144 / 155 40% 9 29.03.2027 -
Tani Oluwaseyi Villarreal Ativo 146 / 150 40% 5 29.03.2027 -
Adrien Truffert Bournemouth Ativo 153 / 157 40% 4 28.03.2027 -
Kerem Aktürkoğlu Fenerbahce Ativo 142 / 142 40% 6 28.03.2027 -
Javi Puado Espanyol Ativo 152 / 150 40% 7 28.03.2027 -
Frenkie de Jong Barcelona Ativo 163 / 169 40% 3 28.03.2027 -
Joaquín Panichelli RC Strasbourg Ativo 146 / 146 40% 2 28.03.2027 -
Logan Costa Villarreal Ativo 145 / 139 40% 2 27.03.2027 -
Ao Tanaka Leeds United Ativo 139 / 146 40% 1 27.03.2027 -
Guille Rosas Gijón Ativo 137 / 133 40% 1 27.03.2027 -
Nicolò Zaniolo Udinese Ativo 145 / 146 40% 2 24.03.2027 -
Borja Mayoral Getafe Ativo 144 / 138 40% 11 23.03.2027 -
Vangelis Pavlidis Benfica Ativo 152 / 147 40% 1 23.03.2027 -
Florentino Luís Ipswich Town Ativo 139 / 134 40% 2 22.03.2027 -
Rico Lewis Manchester City Ativo 149 / 154 40% 3 22.03.2027 -
Santino Barbi Talleres Ativo 111 / 129 40% 2 21.03.2027 -
Robin Roefs Sunderland Ativo 148 / 151 40% 3 21.03.2027 -
Jake O'Brien Everton Ativo 148 / 151 40% 5 21.03.2027 -
Matthijs de Ligt Manchester United Ativo 157 / 153 40% 5 21.03.2027 -
Abel Bretones Osasuna Ativo 141 / 148 40% 4 21.03.2027 -
Guillaume Restes Toulouse FC Ativo 138 / 135 40% 1 21.03.2027 -
Charles De Ketelaere Atalanta Ativo 159 / 147 40% 4 19.03.2027 -
Nico Paz Como Ativo 161 / 167 40% 12 17.03.2027 -
Gonzalo Fulham Ativo 144 / 144 40% 10 17.03.2027 -
Victor Osimhen Galatasaray Ativo 167 / 173 40% 14 16.03.2027 -
Seiya Maikuma AZ Ativo 138 / 136 40% 4 14.03.2027 -
Santi Comesaña Villarreal Ativo 156 / 156 40% 2 14.03.2027 -
Takefusa Kubo Real Sociedad Ativo 154 / 156 40% 4 13.03.2027 -
Giacomo Raspadori Atalanta Ativo 147 / 148 40% 2 13.03.2027 -
Olivier Boscagli Brighton Ativo 149 / 141 40% 5 12.03.2027 -
Gabriel Gudmundsson Leeds United Ativo 140 / 134 40% 1 12.03.2027 -
Noah Sadiki Sunderland Ativo 148 / 148 40% 4 11.03.2027 -
Moise Kean Fiorentina Ativo 157 / 159 40% 2 10.03.2027 -
Ousmane Diomande Nottingham Forest Ativo 147 / 148 40% 3 09.03.2027 -
Ilaix Moriba Celta Ativo 148 / 145 40% 2 09.03.2027 -
Georginio Rutter Brighton Ativo 150 / 149 40% 10 07.03.2027 -
Johnny Cardoso Atlético Madrid Ativo 151 / 161 40% 3 07.03.2027 -
Fran García Betis Ativo 153 / 147 40% 5 07.03.2027 -
Amine Gouiri Olympique de Marseille Ativo 146 / 151 40% 1 07.03.2027 -
Jorge De Frutos Rayo Vallecano Ativo 146 / 141 40% 4 03.03.2027 -
Ismaïla Sarr Crystal Palace Ativo 147 / 153 40% 3 28.02.2027 -
Luis Suárez Sporting CP Ativo 155 / 147 40% 1 28.02.2027 -
Ramón Terrats Getafe Ativo 141 / 144 40% 2 27.02.2027 -
Nico González Newcastle United Ativo 158 / 158 40% 1 26.02.2027 -
Thiago Brentford Ativo 142 / 151 40% 7 24.02.2027 -
Steven Bergwijn Al-Ittihad Ativo 140 / 160 40% 1 24.02.2027 -
Donyell Malen AS Roma Ativo 153 / 156 40% 3 23.02.2027 -
Luiz Henrique Zenit Ativo 137 / 136 40% 3 21.02.2027 -
Moussa Diaby Al-Ittihad Ativo 141 / 159 40% 1 21.02.2027 -
Yuri Alberto Corinthians Ativo 139 / 143 40% 7 18.02.2027 -
Roberto Fernández Braga Ativo 146 / 139 40% 12 15.02.2027 -
Myron van Brederode KV Mechelen Ativo 122 / 129 40% 2 15.02.2027 -
Jesús Areso Athletic Bilbao Ativo 142 / 135 40% 2 15.02.2027 -
Omar El Hilali Espanyol Ativo 142 / 147 40% 2 15.02.2027 -
Tyler Adams Bournemouth Ativo 154 / 149 40% 2 09.02.2027 -
Anton Stach Leeds United Ativo 152 / 146 40% 3 08.02.2027 -
Maxence Lacroix Chelsea Ativo 151 / 157 40% 3 07.02.2027 -
Amadou Onana Aston Villa Ativo 160 / 163 40% 4 06.02.2027 -
Yeremay Deportivo La Coruña Ativo 148 / 141 40% 2 04.02.2027 -
Sergio Gómez Real Sociedad Ativo 141 / 143 40% 1 04.02.2027 -
Mohamed-Ali Cho Hull City Ativo 136 / 130 40% 1 04.02.2027 -
Óscar Mingueza Crystal Palace Ativo 149 / 144 40% 2 02.02.2027 -
Alexis Mac Allister Liverpool Ativo 156 / 159 40% 3 01.02.2027 -
Alex Scott Bournemouth Ativo 149 / 146 40% 3 01.02.2027 -
Kevin Schade Brentford Ativo 147 / 142 40% 4 31.01.2027 -
Alexis Vega Toluca Perdido 157 / 156 40% 1 31.01.2027 -
Gianluca Scamacca Atalanta Rejeitado 147 / 139 40% 6 30.01.2027 Rejeitar
Ez Abde Betis Rejeitado 152 / 144 40% 8 30.01.2027 Rejeitar
Wesley Fofana Chelsea Ativo 162 / 159 40% 5 29.01.2027 -
Jonathan David Juventus Ativo 151 / 154 40% 1 29.01.2027 -
Conor Gallagher Tottenham Ativo 149 / 153 40% 1 29.01.2027 -
Taty Castellanos West Ham United Ativo 149 / 139 40% 4 27.01.2027 -
Alexis Vega Toluca Perdido 147 / 140 40% 1 22.01.2027 -
Jason Januzaj Mouscron Perdido 144 / 136 40% 1 22.01.2027 -
Mason Greenwood Fenerbahce Rejeitado 154 / 149 40% 1 20.01.2027 Mais informações
Bill Antonio KV Mechelen Ativo 121 / 110 40% 1 20.01.2027 -
Matteo Dams Club Brugge Ativo 132 / 122 40% 2 16.01.2027 -
Abdelkahar Kadri KAA Gent Ativo 122 / 131 40% 1 16.01.2027 -
Aimé Omgba KAA Gent Ativo 125 / 119 40% 1 16.01.2027 -
Pedro Flamengo Perdido 145 / 137 40% 1 15.01.2027 -
Bruno Guimarães Arsenal Ativo 166 / 159 40% 3 14.01.2027 -
Exequiel Palacios Ipswich Town Rejeitado 156 / 156 67% 6 13.01.2027 Rejeitar
Tristan Degreef Anderlecht Ativo 125 / 123 40% 1 13.01.2027 -
Kyriani Sabbe Club Brugge Ativo 120 / 122 40% 1 12.01.2027 -
Relebohile Mofokeng Orlando Pirates Ativo 126 / 119 40% 1 08.01.2027 -
Ilay Camara Anderlecht Ativo 136 / 135 40% 1 08.01.2027 -
Jeppe Erenbjerg Racing Genk Ativo 119 / 120 40% 1 07.01.2027 -
Adriano Bertaccini Anderlecht Ativo 128 / 122 40% 1 07.01.2027 -
Yira Sor Racing Genk Ativo 122 / 109 40% 1 07.01.2027 -
Marquinhos Spartak Moscow Ativo 138 / 140 40% 2 06.01.2027 -
Haissem Hassan Bloemfontein Celtic Ativo 129 / 140 40% 1 06.01.2027 -
Daan Heymans Racing Genk Ativo 127 / 124 40% 1 06.01.2027 -
Ilias Sebaoui Sint-Truiden Ativo 127 / 117 40% 1 04.01.2027 -
Ander Barrenetxea Real Sociedad Ativo 146 / 140 40% 1 04.01.2027 -
Virgil Misidjan NEC Perdido 127 / 132 76% 1 02.01.2027 -
Jason Januzaj Mouscron Perdido 151 / 152 40% 8 01.01.2027 -
Bitello Dinamo Moscow Perdido 135 / 135 68% 1 01.01.2027 -
Israel Reyes Club America Perdido 137 / 137 68% 1 01.01.2027 Aprovar
Aurélien Tchouaméni Real Madrid Ativo 164 / 162 40% 1 31.12.2026 -
Pau Víctor Braga Ativo 143 / 131 40% 2 30.12.2026 -
Jean-Philippe Mateta Crystal Palace Ativo 155 / 141 40% 10 28.12.2026 -
Iván Romero Levante Ativo 135 / 145 40% 3 28.12.2026 -
Taiwo Awoniyi Coventry City Ativo 135 / 141 40% 2 27.12.2026 -
Musa Barrow Al-Khaleej Ativo 147 / 129 40% 7 25.12.2026 -
Karl Etta Eyong Levante Ativo 146 / 136 40% 4 23.12.2026 -
Jean-Luc Morin Tours Ativo 146 / 149 40% 5 22.12.2026 -
Dominic Calvert-Lewin Leeds United Ativo 143 / 138 40% 5 18.12.2026 -
Cesar Corona Veracruz Perdido 129 / 151 40% 4 17.12.2026 -
Germán Valera Elche Ativo 136 / 128 40% 1 15.12.2026 -
Soufiane Rahimi Al Ain Ativo 140 / 149 40% 2 13.12.2026 -
Dominic Solanke Tottenham Ativo 149 / 147 40% 5 12.12.2026 -
Isaac Romero Sevilla Ativo 136 / 145 40% 1 10.12.2026 -
Alexis Vega Toluca Perdido 148 / 152 40% 9 09.12.2026 -
Michy Fellaini KV Oostende Ativo 136 / 137 40% 1 08.12.2026 -
Largie Ramazani Leeds United Ativo 142 / 137 40% 2 04.12.2026 -
Jonathan Dubasin Osasuna Ativo 144 / 133 40% 3 02.12.2026 -
Ollie Watkins Aston Villa Ativo 151 / 155 40% 12 01.12.2026 -
Mats Wieffer Brighton Ativo 150 / 152 40% 2 29.11.2026 -
Emanuel Emegha Chelsea Ativo 144 / 134 40% 4 29.11.2026 -
Carlos Augusto Inter Ativo 149 / 150 40% 2 29.11.2026 -
Lucas Boyé Alavés Ativo 141 / 136 40% 1 29.11.2026 -
Xaver Schlager Nottingham Forest Ativo 152 / 147 40% 2 26.11.2026 -
Kostantis Tzolakis Hull City Ativo 145 / 145 40% 2 26.11.2026 -
José Ángel Carmona Sevilla Ativo 142 / 143 40% 1 26.11.2026 -
Aitor Paredes Athletic Bilbao Ativo 147 / 155 40% 1 26.11.2026 -
Tammy Abraham Aston Villa Ativo 144 / 132 40% 5 22.11.2026 -
Noussair Mazraoui Manchester United Ativo 149 / 143 40% 3 14.11.2026 -
Iván Martín Racing Club Ativo 141 / 143 40% 1 14.11.2026 -
Barış Alper Yılmaz Galatasaray Ativo 146 / 135 40% 3 12.11.2026 -
Juanlu Bournemouth Ativo 148 / 149 40% 2 12.11.2026 -
Adam Wharton Crystal Palace Ativo 154 / 150 40% 2 08.11.2026 -
Zinho Meunier KV Oostende Ativo 162 / 158 40% 5 08.11.2026 -
Nordi Mukiele Sunderland Ativo 145 / 143 40% 1 08.11.2026 -
Ethan Ampadu Leeds United Ativo 142 / 139 40% 1 07.11.2026 -
Conor Bradley Liverpool Ativo 155 / 149 40% 3 05.11.2026 -
Joe Gomez Liverpool Ativo 153 / 149 40% 1 05.11.2026 -
Nicolò Tresoldi Club Brugge Ativo 130 / 132 40% 1 02.11.2026 -
Antonee Robinson Fulham Ativo 148 / 141 40% 2 30.10.2026 -
Théo Hernández Al-Hilal Ativo 158 / 144 40% 1 30.10.2026 -
Tijjani Reijnders Al-Qadisiyah Ativo 170 / 146 40% 1 29.10.2026 -
Yehor Yarmoliuk Brentford Ativo 152 / 151 40% 1 29.10.2026 -
Mateo Pellegrino Fiorentina Ativo 145 / 140 40% 1 24.10.2026 -
Lewis Hall Newcastle United Ativo 149 / 153 40% 2 23.10.2026 -
Diogo Dalot Manchester United Ativo 142 / 140 40% 1 18.10.2026 -
Jørgen Strand Larsen Crystal Palace Ativo 144 / 139 40% 3 16.10.2026 -
Robin Risser RC Lens Ativo 137 / 147 40% 1 14.10.2026 -
Marvin Keller Young Boys Ativo 140 / 140 40% 4 12.10.2026 -
Cezary Miszta Rio Ave Ativo 125 / 122 40% 2 12.10.2026 -
George Hirst Stoke City Ativo 140 / 134 40% 1 11.10.2026 -
João Neves Paris Saint-Germain Ativo 170 / 169 40% 2 08.10.2026 -
Matheus Cunha Manchester United Ativo 157 / 161 40% 4 06.10.2026 -
Yoane Wissa Newcastle United Ativo 147 / 144 40% 3 05.10.2026 -
Antonín Kinský Tottenham Rejeitado 128 / 132 40% 2 03.10.2026 Mais informações
Will Lankshear Middlesbrough Ativo 122 / 134 40% 1 30.09.2026 -
Rayan Bournemouth Ativo 136 / 147 40% 1 27.09.2026 -
Nicolas Jackson Aston Villa Ativo 146 / 138 40% 2 26.09.2026 -
Eddie Nketiah Crystal Palace Ativo 144 / 130 40% 2 26.09.2026 -
Rome-Jayden Owusu-Oduro AZ Ativo 137 / 136 40% 1 25.09.2026 -
Senne Lammens Manchester United Ativo 146 / 145 40% 3 23.09.2026 -
Bart Verbruggen Brighton Ativo 156 / 161 40% 1 23.09.2026 -
Rafiu Durosinmi Racing Genk Ativo 123 / 124 40% 1 21.09.2026 -
Efraín Álvarez Guadalajara Ativo 137 / 127 40% 1 21.09.2026 -
Tadeo Allende Inter Miami CF Ativo 133 / 113 40% 1 21.09.2026 -
Murillo Nottingham Forest Ativo 148 / 149 40% 1 18.09.2026 -
Matty Cash Aston Villa Ativo 149 / 149 40% 1 17.09.2026 -
Ibrahim Sangaré Nottingham Forest Ativo 154 / 149 40% 1 17.09.2026 -
Benjamin Šeško Manchester United Ativo 142 / 141 40% 3 15.09.2026 -
Ayase Ueda Manchester United Ativo 132 / 138 40% 2 15.09.2026 -
Richarlison Tottenham Ativo 136 / 148 40% 2 13.09.2026 -
João Pedro Chelsea Ativo 156 / 156 40% 2 12.09.2026 -
Cristhian Mosquera Arsenal Ativo 143 / 145 40% 1 12.09.2026 -
Michael Kayode Brentford Ativo 147 / 154 40% 1 09.09.2026 -
Mathys Tel Tottenham Ativo 134 / 153 40% 1 05.09.2026 -
Joshua Zirkzee Manchester United Ativo 147 / 144 40% 1 03.09.2026 -
Pierce Charles Manchester City Ativo 115 / 121 40% 1 01.09.2026 -
Radek Vítek Middlesbrough Ativo 124 / 129 40% 1 30.08.2026 -
Ayoub Oufkir AZ Ativo 127 / 127 40% 1 27.08.2026 -
Youssef En-Nesyri Al-Ittihad Ativo 134 / 147 40% 1 27.08.2026 -
Dodi Lukébakio Benfica Ativo 141 / 144 40% 1 26.08.2026 -
Deniz Ertaş Konyaspor Ativo 109 / 119 40% 1 26.08.2026 -
Kauã Elias Shakhtar Ativo 123 / 123 40% 1 24.08.2026 -
Matthieu Epolo Standard Liege Ativo 116 / 118 40% 1 17.08.2026 -
Mamour N'Diaye Sarpsborg 08 Ativo 112 / 111 40% 1 17.08.2026 -
Viktor Baier Viktoria Plzen Ativo 108 / 111 40% 1 10.08.2026 -
Bernt Klaverboer Heerenveen Ativo 116 / 111 40% 1 10.08.2026 -
Xavier Biscayzacú Defensor Sporting Ativo 116 / 118 40% 1 03.08.2026 -
Vinícius Júnior Real Madrid Ativo 167 / 170 40% 1 02.08.2026 -
Kobbie Mainoo Manchester United Ativo 155 / 160 40% 1 01.08.2026 -
Youri Tielemans Manchester United Ativo 159 / 167 40% 1 01.08.2026 -
Phil Foden Manchester City Ativo 175 / 164 40% 1 01.08.2026 -